sensor_id;sensor_type;location;lat;lon;timestamp;P1;durP1;ratioP1;P2;durP2;ratioP2
11113;SDS011;5610;52.154;9.198;2022-12-26T00:00:04;13.47;;;12.30;;
11113;SDS011;5610;52.154;9.198;2022-12-26T00:02:51;13.13;;;11.73;;
11113;SDS011;5610;52.154;9.198;2022-12-26T00:05:38;12.77;;;11.37;;
11113;SDS011;5610;52.154;9.198;2022-12-26T00:08:23;12.77;;;11.67;;
11113;SDS011;5610;52.154;9.198;2022-12-26T00:11:09;12.30;;;11.30;;
11113;SDS011;5610;52.154;9.198;2022-12-26T00:13:55;12.60;;;11.40;;
11113;SDS011;5610;52.154;9.198;2022-12-26T00:16:42;12.23;;;11.03;;
11113;SDS011;5610;52.154;9.198;2022-12-26T00:19:30;11.30;;;10.40;;
11113;SDS011;5610;52.154;9.198;2022-12-26T00:22:17;11.97;;;10.87;;
11113;SDS011;5610;52.154;9.198;2022-12-26T00:25:02;11.60;;;10.60;;
11113;SDS011;5610;52.154;9.198;2022-12-26T00:27:48;12.43;;;11.33;;
11113;SDS011;5610;52.154;9.198;2022-12-26T00:30:35;12.20;;;11.10;;
11113;SDS011;5610;52.154;9.198;2022-12-26T00:33:21;13.30;;;12.00;;
11113;SDS011;5610;52.154;9.198;2022-12-26T00:36:08;12.83;;;11.73;;
11113;SDS011;5610;52.154;9.198;2022-12-26T00:38:57;13.50;;;12.30;;
11113;SDS011;5610;52.154;9.198;2022-12-26T00:41:44;13.50;;;12.10;;
11113;SDS011;5610;52.154;9.198;2022-12-26T00:44:29;14.00;;;12.67;;
11113;SDS011;5610;52.154;9.198;2022-12-26T00:47:14;14.03;;;12.17;;
11113;SDS011;5610;52.154;9.198;2022-12-26T00:50:00;15.10;;;13.80;;
11113;SDS011;5610;52.154;9.198;2022-12-26T00:52:45;15.47;;;14.17;;
11113;SDS011;5610;52.154;9.198;2022-12-26T00:55:32;15.83;;;14.33;;
11113;SDS011;5610;52.154;9.198;2022-12-26T00:58:17;16.87;;;15.27;;
11113;SDS011;5610;52.154;9.198;2022-12-26T01:01:04;15.63;;;14.33;;
11113;SDS011;5610;52.154;9.198;2022-12-26T01:03:51;16.63;;;14.90;;
11113;SDS011;5610;52.154;9.198;2022-12-26T01:06:36;15.90;;;14.50;;
11113;SDS011;5610;52.154;9.198;2022-12-26T01:09:21;14.07;;;12.77;;
11113;SDS011;5610;52.154;9.198;2022-12-26T01:12:08;16.10;;;14.60;;
11113;SDS011;5610;52.154;9.198;2022-12-26T01:14:54;15.67;;;14.27;;
11113;SDS011;5610;52.154;9.198;2022-12-26T01:17:39;16.23;;;14.63;;
11113;SDS011;5610;52.154;9.198;2022-12-26T01:20:25;17.30;;;15.70;;
11113;SDS011;5610;52.154;9.198;2022-12-26T01:23:10;14.80;;;13.57;;
11113;SDS011;5610;52.154;9.198;2022-12-26T01:25:55;16.10;;;14.70;;
11113;SDS011;5610;52.154;9.198;2022-12-26T01:28:42;16.40;;;15.00;;
11113;SDS011;5610;52.154;9.198;2022-12-26T01:31:27;14.37;;;13.10;;
11113;SDS011;5610;52.154;9.198;2022-12-26T01:34:13;15.57;;;14.17;;
11113;SDS011;5610;52.154;9.198;2022-12-26T01:36:58;15.23;;;13.83;;
11113;SDS011;5610;52.154;9.198;2022-12-26T01:39:43;14.20;;;13.00;;
11113;SDS011;5610;52.154;9.198;2022-12-26T01:42:33;14.70;;;13.20;;
11113;SDS011;5610;52.154;9.198;2022-12-26T01:45:23;15.07;;;13.87;;
11113;SDS011;5610;52.154;9.198;2022-12-26T01:48:12;14.83;;;13.30;;
11113;SDS011;5610;52.154;9.198;2022-12-26T01:51:02;13.80;;;12.57;;
11113;SDS011;5610;52.154;9.198;2022-12-26T01:53:51;13.00;;;11.90;;
11113;SDS011;5610;52.154;9.198;2022-12-26T01:56:40;14.60;;;13.30;;
11113;SDS011;5610;52.154;9.198;2022-12-26T01:59:28;13.57;;;12.37;;
11113;SDS011;5610;52.154;9.198;2022-12-26T02:02:18;13.83;;;12.53;;
11113;SDS011;5610;52.154;9.198;2022-12-26T02:05:05;13.83;;;12.63;;
11113;SDS011;5610;52.154;9.198;2022-12-26T02:08:10;12.87;;;11.67;;
11113;SDS011;5610;52.154;9.198;2022-12-26T02:11:00;13.23;;;12.13;;
11113;SDS011;5610;52.154;9.198;2022-12-26T02:13:51;13.00;;;11.80;;
11113;SDS011;5610;52.154;9.198;2022-12-26T02:16:37;12.30;;;11.20;;
11113;SDS011;5610;52.154;9.198;2022-12-26T02:19:28;14.87;;;13.57;;
11113;SDS011;5610;52.154;9.198;2022-12-26T02:22:34;15.00;;;13.20;;
11113;SDS011;5610;52.154;9.198;2022-12-26T02:25:52;14.07;;;12.80;;
11113;SDS011;5610;52.154;9.198;2022-12-26T02:29:07;14.33;;;12.93;;
11113;SDS011;5610;52.154;9.198;2022-12-26T02:32:13;13.97;;;12.77;;
11113;SDS011;5610;52.154;9.198;2022-12-26T02:35:05;13.70;;;12.60;;
11113;SDS011;5610;52.154;9.198;2022-12-26T02:38:00;13.43;;;12.13;;
11113;SDS011;5610;52.154;9.198;2022-12-26T02:41:00;13.57;;;12.27;;
11113;SDS011;5610;52.154;9.198;2022-12-26T02:43:57;13.30;;;12.10;;
11113;SDS011;5610;52.154;9.198;2022-12-26T02:47:14;14.00;;;12.50;;
11113;SDS011;5610;52.154;9.198;2022-12-26T02:50:08;13.20;;;12.00;;
11113;SDS011;5610;52.154;9.198;2022-12-26T02:53:18;13.47;;;12.27;;
11113;SDS011;5610;52.154;9.198;2022-12-26T02:56:31;12.80;;;11.67;;
11113;SDS011;5610;52.154;9.198;2022-12-26T02:59:40;13.20;;;12.00;;
11113;SDS011;5610;52.154;9.198;2022-12-26T03:02:53;12.97;;;11.80;;
11113;SDS011;5610;52.154;9.198;2022-12-26T03:06:02;12.40;;;11.30;;
11113;SDS011;5610;52.154;9.198;2022-12-26T03:09:08;12.00;;;10.90;;
11113;SDS011;5610;52.154;9.198;2022-12-26T03:12:23;11.97;;;10.80;;
11113;SDS011;5610;52.154;9.198;2022-12-26T03:15:33;12.87;;;11.67;;
11113;SDS011;5610;52.154;9.198;2022-12-26T03:18:38;13.30;;;12.10;;
11113;SDS011;5610;52.154;9.198;2022-12-26T03:21:27;13.03;;;11.80;;
11113;SDS011;5610;52.154;9.198;2022-12-26T03:24:17;13.67;;;12.37;;
11113;SDS011;5610;52.154;9.198;2022-12-26T03:27:03;12.27;;;11.27;;
11113;SDS011;5610;52.154;9.198;2022-12-26T03:29:47;12.93;;;11.70;;
11113;SDS011;5610;52.154;9.198;2022-12-26T03:32:50;14.20;;;12.80;;
11113;SDS011;5610;52.154;9.198;2022-12-26T03:35:39;12.97;;;11.77;;
11113;SDS011;5610;52.154;9.198;2022-12-26T03:38:25;13.83;;;12.60;;
11113;SDS011;5610;52.154;9.198;2022-12-26T03:41:19;15.00;;;13.60;;
11113;SDS011;5610;52.154;9.198;2022-12-26T03:44:28;14.23;;;12.93;;
11113;SDS011;5610;52.154;9.198;2022-12-26T03:47:39;14.73;;;13.17;;
11113;SDS011;5610;52.154;9.198;2022-12-26T03:50:52;15.00;;;13.67;;
11113;SDS011;5610;52.154;9.198;2022-12-26T03:54:04;15.07;;;13.67;;
11113;SDS011;5610;52.154;9.198;2022-12-26T03:57:13;15.07;;;13.67;;
11113;SDS011;5610;52.154;9.198;2022-12-26T04:00:20;14.97;;;13.67;;
11113;SDS011;5610;52.154;9.198;2022-12-26T04:03:23;14.37;;;12.97;;
11113;SDS011;5610;52.154;9.198;2022-12-26T04:06:32;14.77;;;13.47;;
11113;SDS011;5610;52.154;9.198;2022-12-26T04:09:38;14.00;;;12.60;;
11113;SDS011;5610;52.154;9.198;2022-12-26T04:12:46;13.47;;;12.27;;
11113;SDS011;5610;52.154;9.198;2022-12-26T04:15:52;12.87;;;11.73;;
11113;SDS011;5610;52.154;9.198;2022-12-26T04:19:00;12.40;;;11.10;;
11113;SDS011;5610;52.154;9.198;2022-12-26T04:22:12;14.90;;;11.87;;
11113;SDS011;5610;52.154;9.198;2022-12-26T04:25:20;12.17;;;11.03;;
11113;SDS011;5610;52.154;9.198;2022-12-26T04:28:26;12.37;;;11.27;;
11113;SDS011;5610;52.154;9.198;2022-12-26T04:31:29;12.50;;;11.30;;
11113;SDS011;5610;52.154;9.198;2022-12-26T04:34:39;11.07;;;10.17;;
11113;SDS011;5610;52.154;9.198;2022-12-26T04:37:48;12.17;;;9.53;;
11113;SDS011;5610;52.154;9.198;2022-12-26T04:40:54;11.50;;;9.70;;
11113;SDS011;5610;52.154;9.198;2022-12-26T04:44:02;10.23;;;9.33;;
11113;SDS011;5610;52.154;9.198;2022-12-26T04:46:51;10.80;;;9.90;;
11113;SDS011;5610;52.154;9.198;2022-12-26T04:49:42;10.90;;;9.87;;
11113;SDS011;5610;52.154;9.198;2022-12-26T04:52:46;9.53;;;8.73;;
11113;SDS011;5610;52.154;9.198;2022-12-26T04:55:45;10.63;;;9.53;;
11113;SDS011;5610;52.154;9.198;2022-12-26T04:58:30;10.67;;;9.67;;
11113;SDS011;5610;52.154;9.198;2022-12-26T05:01:15;9.50;;;8.70;;
11113;SDS011;5610;52.154;9.198;2022-12-26T05:04:18;9.13;;;8.33;;
11113;SDS011;5610;52.154;9.198;2022-12-26T05:07:22;8.83;;;7.70;;
11113;SDS011;5610;52.154;9.198;2022-12-26T05:10:27;8.40;;;7.60;;
11113;SDS011;5610;52.154;9.198;2022-12-26T05:13:13;7.97;;;7.17;;
11113;SDS011;5610;52.154;9.198;2022-12-26T05:15:59;9.13;;;8.33;;
11113;SDS011;5610;52.154;9.198;2022-12-26T05:19:02;8.80;;;7.87;;
11113;SDS011;5610;52.154;9.198;2022-12-26T05:22:08;7.03;;;6.43;;
11113;SDS011;5610;52.154;9.198;2022-12-26T05:25:13;8.00;;;7.30;;
11113;SDS011;5610;52.154;9.198;2022-12-26T05:28:20;8.20;;;7.50;;
11113;SDS011;5610;52.154;9.198;2022-12-26T05:31:23;8.00;;;7.30;;
11113;SDS011;5610;52.154;9.198;2022-12-26T05:34:08;8.00;;;7.30;;
11113;SDS011;5610;52.154;9.198;2022-12-26T05:36:54;8.23;;;7.43;;
11113;SDS011;5610;52.154;9.198;2022-12-26T05:39:42;8.67;;;7.40;;
11113;SDS011;5610;52.154;9.198;2022-12-26T05:42:28;8.13;;;7.43;;
11113;SDS011;5610;52.154;9.198;2022-12-26T05:45:14;9.37;;;8.30;;
11113;SDS011;5610;52.154;9.198;2022-12-26T05:48:00;7.87;;;7.17;;
11113;SDS011;5610;52.154;9.198;2022-12-26T05:50:46;7.43;;;6.83;;
11113;SDS011;5610;52.154;9.198;2022-12-26T05:53:31;9.37;;;8.40;;
11113;SDS011;5610;52.154;9.198;2022-12-26T05:56:17;8.43;;;7.50;;
11113;SDS011;5610;52.154;9.198;2022-12-26T05:59:03;8.53;;;7.70;;
11113;SDS011;5610;52.154;9.198;2022-12-26T06:01:49;8.43;;;7.63;;
11113;SDS011;5610;52.154;9.198;2022-12-26T06:04:35;8.73;;;7.83;;
11113;SDS011;5610;52.154;9.198;2022-12-26T06:07:20;9.10;;;8.20;;
11113;SDS011;5610;52.154;9.198;2022-12-26T06:10:06;8.50;;;7.60;;
11113;SDS011;5610;52.154;9.198;2022-12-26T06:12:51;10.93;;;9.83;;
11113;SDS011;5610;52.154;9.198;2022-12-26T06:15:37;15.30;;;14.00;;
11113;SDS011;5610;52.154;9.198;2022-12-26T06:18:24;8.63;;;7.83;;
11113;SDS011;5610;52.154;9.198;2022-12-26T06:21:10;7.33;;;6.73;;
11113;SDS011;5610;52.154;9.198;2022-12-26T06:23:57;8.10;;;7.40;;
11113;SDS011;5610;52.154;9.198;2022-12-26T06:26:42;8.13;;;7.43;;
11113;SDS011;5610;52.154;9.198;2022-12-26T06:29:28;9.80;;;8.90;;
11113;SDS011;5610;52.154;9.198;2022-12-26T06:32:13;9.77;;;8.77;;
11113;SDS011;5610;52.154;9.198;2022-12-26T06:35:00;9.60;;;8.70;;
11113;SDS011;5610;52.154;9.198;2022-12-26T06:37:45;9.70;;;8.77;;
11113;SDS011;5610;52.154;9.198;2022-12-26T06:40:31;9.87;;;8.87;;
11113;SDS011;5610;52.154;9.198;2022-12-26T06:43:16;9.90;;;8.90;;
11113;SDS011;5610;52.154;9.198;2022-12-26T06:46:03;9.13;;;8.23;;
11113;SDS011;5610;52.154;9.198;2022-12-26T06:48:50;10.70;;;8.73;;
11113;SDS011;5610;52.154;9.198;2022-12-26T06:51:37;9.00;;;8.13;;
11113;SDS011;5610;52.154;9.198;2022-12-26T06:54:22;10.40;;;9.30;;
11113;SDS011;5610;52.154;9.198;2022-12-26T06:57:07;9.20;;;8.20;;
11113;SDS011;5610;52.154;9.198;2022-12-26T06:59:53;9.13;;;8.23;;
11113;SDS011;5610;52.154;9.198;2022-12-26T07:02:38;8.50;;;7.60;;
11113;SDS011;5610;52.154;9.198;2022-12-26T07:05:24;9.37;;;8.47;;
11113;SDS011;5610;52.154;9.198;2022-12-26T07:08:10;8.17;;;7.40;;
11113;SDS011;5610;52.154;9.198;2022-12-26T07:10:55;8.90;;;8.00;;
11113;SDS011;5610;52.154;9.198;2022-12-26T07:13:41;8.97;;;7.90;;
11113;SDS011;5610;52.154;9.198;2022-12-26T07:16:29;9.17;;;8.27;;
11113;SDS011;5610;52.154;9.198;2022-12-26T07:19:15;9.40;;;8.50;;
11113;SDS011;5610;52.154;9.198;2022-12-26T07:22:00;7.97;;;7.20;;
11113;SDS011;5610;52.154;9.198;2022-12-26T07:24:48;9.30;;;8.40;;
11113;SDS011;5610;52.154;9.198;2022-12-26T07:27:33;10.40;;;9.37;;
11113;SDS011;5610;52.154;9.198;2022-12-26T07:30:18;9.63;;;8.57;;
11113;SDS011;5610;52.154;9.198;2022-12-26T07:33:04;16.97;;;14.67;;
11113;SDS011;5610;52.154;9.198;2022-12-26T07:35:49;14.00;;;12.03;;
11113;SDS011;5610;52.154;9.198;2022-12-26T07:38:34;10.93;;;9.93;;
11113;SDS011;5610;52.154;9.198;2022-12-26T07:41:21;11.10;;;10.20;;
11113;SDS011;5610;52.154;9.198;2022-12-26T07:44:25;10.40;;;9.50;;
11113;SDS011;5610;52.154;9.198;2022-12-26T07:47:11;9.90;;;9.00;;
11113;SDS011;5610;52.154;9.198;2022-12-26T07:49:56;10.97;;;9.97;;
11113;SDS011;5610;52.154;9.198;2022-12-26T07:52:41;10.13;;;9.13;;
11113;SDS011;5610;52.154;9.198;2022-12-26T07:55:26;10.77;;;8.60;;
11113;SDS011;5610;52.154;9.198;2022-12-26T07:58:13;9.13;;;8.33;;
11113;SDS011;5610;52.154;9.198;2022-12-26T08:00:59;9.63;;;8.83;;
11113;SDS011;5610;52.154;9.198;2022-12-26T08:03:46;9.20;;;8.33;;
11113;SDS011;5610;52.154;9.198;2022-12-26T08:06:31;9.37;;;8.53;;
11113;SDS011;5610;52.154;9.198;2022-12-26T08:09:17;10.63;;;9.73;;
11113;SDS011;5610;52.154;9.198;2022-12-26T08:12:02;11.00;;;10.00;;
11113;SDS011;5610;52.154;9.198;2022-12-26T08:14:49;8.97;;;8.20;;
11113;SDS011;5610;52.154;9.198;2022-12-26T08:17:34;10.70;;;9.60;;
11113;SDS011;5610;52.154;9.198;2022-12-26T08:20:19;11.63;;;10.63;;
11113;SDS011;5610;52.154;9.198;2022-12-26T08:23:05;10.77;;;9.93;;
11113;SDS011;5610;52.154;9.198;2022-12-26T08:25:50;10.97;;;9.87;;
11113;SDS011;5610;52.154;9.198;2022-12-26T08:28:35;11.50;;;10.50;;
11113;SDS011;5610;52.154;9.198;2022-12-26T08:31:22;9.93;;;9.03;;
11113;SDS011;5610;52.154;9.198;2022-12-26T08:34:08;10.83;;;9.00;;
11113;SDS011;5610;52.154;9.198;2022-12-26T08:36:53;10.30;;;9.40;;
11113;SDS011;5610;52.154;9.198;2022-12-26T08:39:39;9.50;;;8.70;;
11113;SDS011;5610;52.154;9.198;2022-12-26T08:42:24;12.23;;;11.07;;
11113;SDS011;5610;52.154;9.198;2022-12-26T08:45:09;11.33;;;10.33;;
11113;SDS011;5610;52.154;9.198;2022-12-26T08:47:56;11.47;;;10.57;;
11113;SDS011;5610;52.154;9.198;2022-12-26T08:50:42;11.00;;;10.10;;
11113;SDS011;5610;52.154;9.198;2022-12-26T08:53:27;11.97;;;10.90;;
11113;SDS011;5610;52.154;9.198;2022-12-26T08:56:16;12.53;;;11.43;;
11113;SDS011;5610;52.154;9.198;2022-12-26T08:59:02;12.97;;;11.87;;
11113;SDS011;5610;52.154;9.198;2022-12-26T09:01:49;19.20;;;17.60;;
11113;SDS011;5610;52.154;9.198;2022-12-26T09:04:36;18.50;;;16.87;;
11113;SDS011;5610;52.154;9.198;2022-12-26T09:07:21;13.60;;;12.50;;
11113;SDS011;5610;52.154;9.198;2022-12-26T09:10:07;13.10;;;11.90;;
11113;SDS011;5610;52.154;9.198;2022-12-26T09:12:53;14.57;;;13.10;;
11113;SDS011;5610;52.154;9.198;2022-12-26T09:15:38;12.43;;;11.23;;
11113;SDS011;5610;52.154;9.198;2022-12-26T09:18:24;14.93;;;13.53;;
11113;SDS011;5610;52.154;9.198;2022-12-26T09:21:11;15.10;;;13.67;;
11113;SDS011;5610;52.154;9.198;2022-12-26T09:23:58;13.93;;;12.63;;
11113;SDS011;5610;52.154;9.198;2022-12-26T09:26:45;12.90;;;11.80;;
11113;SDS011;5610;52.154;9.198;2022-12-26T09:29:30;13.30;;;12.10;;
11113;SDS011;5610;52.154;9.198;2022-12-26T09:32:15;13.70;;;12.60;;
11113;SDS011;5610;52.154;9.198;2022-12-26T09:35:01;15.63;;;14.13;;
11113;SDS011;5610;52.154;9.198;2022-12-26T09:37:49;12.67;;;11.60;;
11113;SDS011;5610;52.154;9.198;2022-12-26T09:40:43;10.70;;;9.80;;
11113;SDS011;5610;52.154;9.198;2022-12-26T09:43:40;14.33;;;13.03;;
11113;SDS011;5610;52.154;9.198;2022-12-26T09:46:35;11.50;;;10.50;;
11113;SDS011;5610;52.154;9.198;2022-12-26T09:49:28;11.90;;;10.80;;
11113;SDS011;5610;52.154;9.198;2022-12-26T09:52:16;11.73;;;10.80;;
11113;SDS011;5610;52.154;9.198;2022-12-26T09:55:12;10.37;;;9.57;;
11113;SDS011;5610;52.154;9.198;2022-12-26T09:58:12;11.80;;;10.90;;
11113;SDS011;5610;52.154;9.198;2022-12-26T10:01:04;10.20;;;9.40;;
11113;SDS011;5610;52.154;9.198;2022-12-26T10:03:54;9.70;;;8.70;;
11113;SDS011;5610;52.154;9.198;2022-12-26T10:06:42;12.43;;;11.23;;
11113;SDS011;5610;52.154;9.198;2022-12-26T10:09:38;13.90;;;12.60;;
11113;SDS011;5610;52.154;9.198;2022-12-26T10:12:39;10.20;;;9.40;;
11113;SDS011;5610;52.154;9.198;2022-12-26T10:15:37;9.37;;;8.53;;
11113;SDS011;5610;52.154;9.198;2022-12-26T10:18:29;9.13;;;8.43;;
11113;SDS011;5610;52.154;9.198;2022-12-26T10:21:27;9.50;;;8.80;;
11113;SDS011;5610;52.154;9.198;2022-12-26T10:24:21;9.30;;;8.40;;
11113;SDS011;5610;52.154;9.198;2022-12-26T10:27:09;8.20;;;7.60;;
11113;SDS011;5610;52.154;9.198;2022-12-26T10:30:01;8.40;;;7.70;;
11113;SDS011;5610;52.154;9.198;2022-12-26T10:32:50;7.40;;;6.90;;
11113;SDS011;5610;52.154;9.198;2022-12-26T10:35:39;7.17;;;6.57;;
11113;SDS011;5610;52.154;9.198;2022-12-26T10:38:28;7.20;;;6.80;;
11113;SDS011;5610;52.154;9.198;2022-12-26T10:41:22;8.10;;;7.50;;
11113;SDS011;5610;52.154;9.198;2022-12-26T10:44:10;7.30;;;6.67;;
11113;SDS011;5610;52.154;9.198;2022-12-26T10:47:06;6.90;;;6.30;;
11113;SDS011;5610;52.154;9.198;2022-12-26T10:50:01;7.57;;;6.97;;
11113;SDS011;5610;52.154;9.198;2022-12-26T10:52:47;8.30;;;7.60;;
11113;SDS011;5610;52.154;9.198;2022-12-26T10:55:34;7.30;;;6.80;;
11113;SDS011;5610;52.154;9.198;2022-12-26T10:58:20;7.63;;;7.03;;
11113;SDS011;5610;52.154;9.198;2022-12-26T11:04:19;5.60;;;5.20;;
11113;SDS011;5610;52.154;9.198;2022-12-26T11:07:07;6.93;;;5.30;;
11113;SDS011;5610;52.154;9.198;2022-12-26T11:09:54;4.37;;;4.03;;
11113;SDS011;5610;52.154;9.198;2022-12-26T11:12:43;5.20;;;4.80;;
11113;SDS011;5610;52.154;9.198;2022-12-26T11:15:33;4.40;;;4.10;;
11113;SDS011;5610;52.154;9.198;2022-12-26T11:18:32;8.37;;;4.33;;
11113;SDS011;5610;52.154;9.198;2022-12-26T11:21:22;3.77;;;3.47;;
11113;SDS011;5610;52.154;9.198;2022-12-26T11:24:15;5.10;;;3.50;;
11113;SDS011;5610;52.154;9.198;2022-12-26T11:27:15;9.10;;;8.30;;
11113;SDS011;5610;52.154;9.198;2022-12-26T11:30:10;4.50;;;3.63;;
11113;SDS011;5610;52.154;9.198;2022-12-26T11:33:03;9.93;;;8.93;;
11113;SDS011;5610;52.154;9.198;2022-12-26T11:36:00;3.30;;;3.00;;
11113;SDS011;5610;52.154;9.198;2022-12-26T11:38:52;5.60;;;3.80;;
11113;SDS011;5610;52.154;9.198;2022-12-26T11:41:40;4.23;;;2.93;;
11113;SDS011;5610;52.154;9.198;2022-12-26T11:44:27;3.97;;;3.57;;
11113;SDS011;5610;52.154;9.198;2022-12-26T11:47:16;7.03;;;6.13;;
11113;SDS011;5610;52.154;9.198;2022-12-26T11:50:04;5.20;;;4.70;;
11113;SDS011;5610;52.154;9.198;2022-12-26T11:52:52;4.33;;;4.00;;
11113;SDS011;5610;52.154;9.198;2022-12-26T11:55:57;7.47;;;6.87;;
11113;SDS011;5610;52.154;9.198;2022-12-26T11:58:44;7.03;;;6.40;;
11113;SDS011;5610;52.154;9.198;2022-12-26T12:01:29;8.17;;;6.33;;
11113;SDS011;5610;52.154;9.198;2022-12-26T12:04:14;5.73;;;4.03;;
11113;SDS011;5610;52.154;9.198;2022-12-26T12:07:01;6.27;;;5.67;;
11113;SDS011;5610;52.154;9.198;2022-12-26T12:09:54;6.50;;;5.73;;
11113;SDS011;5610;52.154;9.198;2022-12-26T12:12:48;9.00;;;5.47;;
11113;SDS011;5610;52.154;9.198;2022-12-26T12:15:41;5.50;;;4.53;;
11113;SDS011;5610;52.154;9.198;2022-12-26T12:18:39;5.13;;;4.47;;
11113;SDS011;5610;52.154;9.198;2022-12-26T12:21:42;4.33;;;4.03;;
11113;SDS011;5610;52.154;9.198;2022-12-26T12:24:48;4.50;;;3.50;;
11113;SDS011;5610;52.154;9.198;2022-12-26T12:27:43;7.93;;;3.67;;
11113;SDS011;5610;52.154;9.198;2022-12-26T12:30:37;4.00;;;3.60;;
11113;SDS011;5610;52.154;9.198;2022-12-26T12:33:34;6.93;;;6.33;;
11113;SDS011;5610;52.154;9.198;2022-12-26T12:36:28;4.63;;;4.23;;
11113;SDS011;5610;52.154;9.198;2022-12-26T12:39:24;5.20;;;3.43;;
11113;SDS011;5610;52.154;9.198;2022-12-26T12:42:25;9.17;;;5.20;;
11113;SDS011;5610;52.154;9.198;2022-12-26T12:45:21;6.30;;;3.50;;
11113;SDS011;5610;52.154;9.198;2022-12-26T12:48:17;5.10;;;4.60;;
11113;SDS011;5610;52.154;9.198;2022-12-26T12:51:16;5.33;;;3.10;;
11113;SDS011;5610;52.154;9.198;2022-12-26T12:54:23;4.10;;;3.10;;
11113;SDS011;5610;52.154;9.198;2022-12-26T12:57:32;4.20;;;3.90;;
11113;SDS011;5610;52.154;9.198;2022-12-26T13:00:25;4.20;;;3.80;;
11113;SDS011;5610;52.154;9.198;2022-12-26T13:03:18;7.73;;;5.80;;
11113;SDS011;5610;52.154;9.198;2022-12-26T13:06:12;4.33;;;3.30;;
11113;SDS011;5610;52.154;9.198;2022-12-26T13:09:03;3.73;;;3.33;;
11113;SDS011;5610;52.154;9.198;2022-12-26T13:11:52;3.27;;;3.00;;
11113;SDS011;5610;52.154;9.198;2022-12-26T13:14:42;4.03;;;3.57;;
11113;SDS011;5610;52.154;9.198;2022-12-26T13:17:34;6.97;;;6.27;;
11113;SDS011;5610;52.154;9.198;2022-12-26T13:20:27;6.33;;;5.20;;
11113;SDS011;5610;52.154;9.198;2022-12-26T13:23:19;5.30;;;3.97;;
11113;SDS011;5610;52.154;9.198;2022-12-26T13:26:27;6.67;;;6.00;;
11113;SDS011;5610;52.154;9.198;2022-12-26T13:29:15;6.67;;;5.87;;
11113;SDS011;5610;52.154;9.198;2022-12-26T13:32:15;4.37;;;4.07;;
11113;SDS011;5610;52.154;9.198;2022-12-26T13:35:04;4.90;;;1.03;;
11113;SDS011;5610;52.154;9.198;2022-12-26T13:37:57;1.80;;;1.00;;
11113;SDS011;5610;52.154;9.198;2022-12-26T13:40:44;4.40;;;1.27;;
11113;SDS011;5610;52.154;9.198;2022-12-26T13:43:30;1.40;;;1.13;;
11113;SDS011;5610;52.154;9.198;2022-12-26T13:46:34;2.20;;;1.47;;
11113;SDS011;5610;52.154;9.198;2022-12-26T13:49:37;4.00;;;3.60;;
11113;SDS011;5610;52.154;9.198;2022-12-26T13:52:30;5.10;;;4.70;;
11113;SDS011;5610;52.154;9.198;2022-12-26T13:55:27;9.30;;;7.90;;
11113;SDS011;5610;52.154;9.198;2022-12-26T13:58:36;8.67;;;7.57;;
11113;SDS011;5610;52.154;9.198;2022-12-26T14:01:35;10.27;;;4.90;;
11113;SDS011;5610;52.154;9.198;2022-12-26T14:04:33;7.03;;;4.80;;
11113;SDS011;5610;52.154;9.198;2022-12-26T14:07:32;11.33;;;9.37;;
11113;SDS011;5610;52.154;9.198;2022-12-26T14:10:30;4.70;;;4.00;;
11113;SDS011;5610;52.154;9.198;2022-12-26T14:13:31;9.50;;;5.50;;
11113;SDS011;5610;52.154;9.198;2022-12-26T14:16:29;5.30;;;3.93;;
11113;SDS011;5610;52.154;9.198;2022-12-26T14:19:28;3.97;;;3.20;;
11113;SDS011;5610;52.154;9.198;2022-12-26T14:22:23;3.93;;;3.27;;
11113;SDS011;5610;52.154;9.198;2022-12-26T14:25:16;4.83;;;3.53;;
11113;SDS011;5610;52.154;9.198;2022-12-26T14:28:11;5.57;;;3.77;;
11113;SDS011;5610;52.154;9.198;2022-12-26T14:31:10;6.30;;;3.80;;
11113;SDS011;5610;52.154;9.198;2022-12-26T14:34:03;6.50;;;2.60;;
11113;SDS011;5610;52.154;9.198;2022-12-26T14:37:00;4.80;;;2.60;;
11113;SDS011;5610;52.154;9.198;2022-12-26T14:39:59;6.43;;;2.43;;
11113;SDS011;5610;52.154;9.198;2022-12-26T14:46:03;6.90;;;2.87;;
11113;SDS011;5610;52.154;9.198;2022-12-26T14:48:54;7.60;;;2.80;;
11113;SDS011;5610;52.154;9.198;2022-12-26T14:51:42;5.90;;;2.20;;
11113;SDS011;5610;52.154;9.198;2022-12-26T14:57:40;8.63;;;2.30;;
11113;SDS011;5610;52.154;9.198;2022-12-26T15:00:34;4.13;;;2.00;;
11113;SDS011;5610;52.154;9.198;2022-12-26T15:03:36;3.87;;;2.03;;
11113;SDS011;5610;52.154;9.198;2022-12-26T15:13:44;6.70;;;2.20;;
11113;SDS011;5610;52.154;9.198;2022-12-26T15:16:59;5.87;;;2.37;;
11113;SDS011;5610;52.154;9.198;2022-12-26T15:33:01;8.43;;;2.00;;
11113;SDS011;5610;52.154;9.198;2022-12-26T15:35:54;7.73;;;2.43;;
11113;SDS011;5610;52.154;9.198;2022-12-26T15:38:48;8.13;;;1.60;;
11113;SDS011;5610;52.154;9.198;2022-12-26T15:41:42;7.50;;;2.30;;
11113;SDS011;5610;52.154;9.198;2022-12-26T15:44:32;8.27;;;2.03;;
11113;SDS011;5610;52.154;9.198;2022-12-26T15:47:27;9.37;;;2.20;;
11113;SDS011;5610;52.154;9.198;2022-12-26T15:50:23;8.93;;;1.97;;
11113;SDS011;5610;52.154;9.198;2022-12-26T15:53:20;2.33;;;1.63;;
11113;SDS011;5610;52.154;9.198;2022-12-26T15:56:20;3.43;;;1.43;;
11113;SDS011;5610;52.154;9.198;2022-12-26T16:02:41;6.93;;;1.97;;
11113;SDS011;5610;52.154;9.198;2022-12-26T16:05:36;12.23;;;2.93;;
11113;SDS011;5610;52.154;9.198;2022-12-26T16:08:42;7.93;;;2.50;;
11113;SDS011;5610;52.154;9.198;2022-12-26T16:11:41;7.63;;;1.97;;
11113;SDS011;5610;52.154;9.198;2022-12-26T16:14:33;8.20;;;2.40;;
11113;SDS011;5610;52.154;9.198;2022-12-26T16:17:20;9.00;;;2.20;;
11113;SDS011;5610;52.154;9.198;2022-12-26T16:20:15;8.30;;;1.97;;
11113;SDS011;5610;52.154;9.198;2022-12-26T16:23:23;6.53;;;1.83;;
11113;SDS011;5610;52.154;9.198;2022-12-26T16:26:14;9.63;;;2.70;;
11113;SDS011;5610;52.154;9.198;2022-12-26T16:29:00;6.37;;;2.33;;
11113;SDS011;5610;52.154;9.198;2022-12-26T16:31:46;5.77;;;2.37;;
11113;SDS011;5610;52.154;9.198;2022-12-26T16:34:32;6.23;;;2.33;;
11113;SDS011;5610;52.154;9.198;2022-12-26T16:37:20;4.43;;;1.80;;
11113;SDS011;5610;52.154;9.198;2022-12-26T16:40:17;4.73;;;2.40;;
11113;SDS011;5610;52.154;9.198;2022-12-26T16:43:05;14.07;;;2.47;;
11113;SDS011;5610;52.154;9.198;2022-12-26T16:46:08;11.63;;;2.30;;
11113;SDS011;5610;52.154;9.198;2022-12-26T16:48:56;13.30;;;2.80;;
11113;SDS011;5610;52.154;9.198;2022-12-26T16:51:44;9.20;;;2.50;;
11113;SDS011;5610;52.154;9.198;2022-12-26T16:54:34;6.40;;;2.37;;
11113;SDS011;5610;52.154;9.198;2022-12-26T16:57:23;7.10;;;2.47;;
11113;SDS011;5610;52.154;9.198;2022-12-26T17:00:13;4.30;;;2.10;;
11113;SDS011;5610;52.154;9.198;2022-12-26T17:03:02;6.27;;;2.20;;
11113;SDS011;5610;52.154;9.198;2022-12-26T17:05:53;3.80;;;1.70;;
11113;SDS011;5610;52.154;9.198;2022-12-26T17:08:43;6.37;;;2.17;;
11113;SDS011;5610;52.154;9.198;2022-12-26T17:11:32;11.87;;;2.50;;
11113;SDS011;5610;52.154;9.198;2022-12-26T17:14:23;6.43;;;2.83;;
11113;SDS011;5610;52.154;9.198;2022-12-26T17:17:24;10.20;;;2.57;;
11113;SDS011;5610;52.154;9.198;2022-12-26T17:23:34;5.60;;;2.37;;
11113;SDS011;5610;52.154;9.198;2022-12-26T17:26:28;16.10;;;2.73;;
11113;SDS011;5610;52.154;9.198;2022-12-26T17:32:37;5.57;;;1.77;;
11113;SDS011;5610;52.154;9.198;2022-12-26T17:35:29;6.20;;;2.30;;
11113;SDS011;5610;52.154;9.198;2022-12-26T17:38:16;6.60;;;4.23;;
11113;SDS011;5610;52.154;9.198;2022-12-26T17:41:03;6.83;;;2.63;;
11113;SDS011;5610;52.154;9.198;2022-12-26T17:43:50;9.13;;;3.10;;
11113;SDS011;5610;52.154;9.198;2022-12-26T17:46:36;19.57;;;4.03;;
11113;SDS011;5610;52.154;9.198;2022-12-26T17:49:22;8.33;;;3.97;;
11113;SDS011;5610;52.154;9.198;2022-12-26T17:52:07;10.70;;;3.33;;
11113;SDS011;5610;52.154;9.198;2022-12-26T17:54:53;12.53;;;5.63;;
11113;SDS011;5610;52.154;9.198;2022-12-26T17:57:41;12.13;;;6.70;;
11113;SDS011;5610;52.154;9.198;2022-12-26T18:00:26;9.37;;;2.83;;